Ferry Kyoto2 — JI3701 — position and weather

sailwx.info

Track history (hours):
 
Tides and Currents Weather Stations Pressure Air Temp Water Temp Dewpoint Dewpoint Depression Visibility Wind Speed Wind Dir Waves Ship Positions

Ferry Kyoto2

Last reported at 2015-May-03 12:32 UTC. Time now 2015-May-04 16:02 UTC.
Position N 34°34' E 134°48'.

Length 167 m; draft 6 m.

Type: Passenger vessel. MMSI: 431301641.

Date/timePositionNaut miles runAvg speedWind from/ knotsBaromVisibWave heightAir tempDewpointWater temp
2015-May-03 12:32N 34°34' E 134°48'2121.9
2015-May-03 11:34N 34°36' E 135°14'10 9.1
2015-May-03 10:29N 34°37' E 135°26'0 0.0
2015-May-03 09:29N 34°37' E 135°26'0 0.0
2015-May-03 08:29N 34°37' E 135°26'0 0.0
2015-May-03 07:29N 34°37' E 135°26'0 0.0
2015-May-03 06:29N 34°37' E 135°26'2 2.6
2015-May-03 05:33N 34°38' E 135°23'1514.9
2015-May-03 04:33N 34°27' E 135°11'1414.2
2015-May-03 03:33N 34°37' E 134°59'1818.3
2015-May-03 02:33N 34°37' E 135°21'4 3.0
2015-May-03 01:13N 34°37' E 135°26'0 0.0
2015-May-03 00:32N 34°37' E 135°26'0 0.0
2015-May-02 23:33N 34°37' E 135°26'1110.8
2015-May-02 22:33N 34°35' E 135°13'1919.2
2015-May-02 21:33N 34°34' E 134°50'1 0.0
2015-May-01 12:33N 34°34' E 134°49'2221.8
2015-May-01 11:33N 34°37' E 135°15'9 9.0
2015-May-01 10:33N 34°37' E 135°26'0 0.0
2015-May-01 09:29N 34°37' E 135°26'0 0.0
2015-May-01 08:29N 34°37' E 135°26'0 0.0
2015-May-01 07:29N 34°37' E 135°26'0 0.0
2015-May-01 06:29N 34°37' E 135°26'0 0.0
2015-May-01 05:29N 34°37' E 135°26'0 0.0
2015-May-01 04:29N 34°37' E 135°26'0 0.0
2015-May-01 03:29N 34°37' E 135°26'0 0.0
2015-May-01 01:29N 34°37' E 135°26'0 0.0
2015-May-01 00:17N 34°37' E 135°26'0 0.0
2015-Apr-30 23:29N 34°37' E 135°26'1111.8
2015-Apr-30 22:33N 34°35' E 135°13'1918.6
2015-Apr-30 21:33N 34°34' E 134°50'1 0.0
2015-Apr-29 12:29N 34°35' E 134°50'2021.1
2015-Apr-29 11:33N 34°36' E 135°14'10 9.9
2015-Apr-29 10:33N 34°37' E 135°26'0 0.0
2015-Apr-29 09:28N 34°37' E 135°26'0 0.0
2015-Apr-29 08:28N 34°37' E 135°26'0 0.0
2015-Apr-29 07:28N 34°37' E 135°26'0 0.0
2015-Apr-29 06:16N 34°37' E 135°26'0 0.0
2015-Apr-29 05:28N 34°37' E 135°26'0 0.0
2015-Apr-29 04:22N 34°37' E 135°26'0 0.0
2015-Apr-29 03:28N 34°37' E 135°26'0 0.0
2015-Apr-29 02:28N 34°37' E 135°26'0 0.0
2015-Apr-29 01:04N 34°37' E 135°26'0 0.0
2015-Apr-29 00:28N 34°37' E 135°26'0 0.0
2015-Apr-28 23:28N 34°37' E 135°26'9 9.7
2015-Apr-28 22:33N 34°35' E 135°15'1918.9
2015-Apr-28 21:33N 34°35' E 134°52'1 0.0
2015-Apr-27 12:30N 34°35' E 134°51'1919.8
2015-Apr-27 11:33N 34°36' E 135°14'1010.1
2015-Apr-27 10:33N 34°37' E 135°26'0 0.0
2015-Apr-27 09:19N 34°37' E 135°26'0 0.0
2015-Apr-27 08:31N 34°37' E 135°26'0 0.0
2015-Apr-27 07:31N 34°37' E 135°26'0 0.0
2015-Apr-27 06:25N 34°37' E 135°26'0 0.0
2015-Apr-27 05:31N 34°37' E 135°26'0 0.0
2015-Apr-27 04:31N 34°37' E 135°26'0 0.0
2015-Apr-27 03:25N 34°37' E 135°26'0 0.0
2015-Apr-27 02:31N 34°37' E 135°26'0 0.0
2015-Apr-27 01:31N 34°37' E 135°26'0 0.0
2015-Apr-27 00:31N 34°37' E 135°26'0 0.0
2015-Apr-26 23:31N 34°37' E 135°26'9 9.0
2015-Apr-26 22:33N 34°36' E 135°16'1918.8
2015-Apr-26 21:33N 34°34' E 134°53'2 0.1
2015-Apr-25 12:33N 34°34' E 134°50'2020.4
2015-Apr-25 11:34N 34°37' E 135°14'10 9.7
2015-Apr-25 10:33N 34°37' E 135°26'0 0.0
2015-Apr-25 09:33N 34°37' E 135°26'0 0.0
2015-Apr-25 08:34N 34°37' E 135°26'0 0.0
2015-Apr-25 07:34N 34°37' E 135°26'0 0.0
2015-Apr-25 06:31N 34°37' E 135°26'0 0.0
2015-Apr-25 05:31N 34°37' E 135°26'0 0.0
2015-Apr-25 04:30N 34°37' E 135°26'0 0.0
2015-Apr-25 03:31N 34°37' E 135°26'0 0.0
2015-Apr-25 02:25N 34°37' E 135°26'0 0.0
2015-Apr-25 01:30N 34°37' E 135°26'0 0.0
2015-Apr-25 00:31N 34°37' E 135°26'0 0.0
2015-Apr-24 23:31N 34°37' E 135°26'9 9.5
2015-Apr-24 22:33N 34°35' E 135°15'2019.5
2015-Apr-24 21:33N 34°34' E 134°51'2 0.1
2015-Apr-23 12:33N 34°34' E 134°49'  
Track history (hours):
 
Tides and Currents Weather Stations Pressure Air Temp Water Temp Dewpoint Dewpoint Depression Visibility Wind Speed Wind Dir Waves Ship Positions

Ferry Kyoto2

Last reported at 2015-May-03 12:32 UTC. Time now 2015-May-04 16:02 UTC.
Position N 34°34' E 134°48'.

Length 167 m; draft 6 m.

Type: Passenger vessel. MMSI: 431301641.

Date/timePositionNaut miles runAvg speedWind from/ knotsBaromVisibWave heightAir tempDewpointWater temp
2015-May-03 12:32N 34°34' E 134°48'2121.9
2015-May-03 11:34N 34°36' E 135°14'10 9.1
2015-May-03 10:29N 34°37' E 135°26'0 0.0
2015-May-03 09:29N 34°37' E 135°26'0 0.0
2015-May-03 08:29N 34°37' E 135°26'0 0.0
2015-May-03 07:29N 34°37' E 135°26'0 0.0
2015-May-03 06:29N 34°37' E 135°26'2 2.6
2015-May-03 05:33N 34°38' E 135°23'1514.9
2015-May-03 04:33N 34°27' E 135°11'1414.2
2015-May-03 03:33N 34°37' E 134°59'1818.3
2015-May-03 02:33N 34°37' E 135°21'4 3.0
2015-May-03 01:13N 34°37' E 135°26'0 0.0
2015-May-03 00:32N 34°37' E 135°26'0 0.0
2015-May-02 23:33N 34°37' E 135°26'1110.8
2015-May-02 22:33N 34°35' E 135°13'1919.2
2015-May-02 21:33N 34°34' E 134°50'1 0.0
2015-May-01 12:33N 34°34' E 134°49'2221.8
2015-May-01 11:33N 34°37' E 135°15'9 9.0
2015-May-01 10:33N 34°37' E 135°26'0 0.0
2015-May-01 09:29N 34°37' E 135°26'0 0.0
2015-May-01 08:29N 34°37' E 135°26'0 0.0
2015-May-01 07:29N 34°37' E 135°26'0 0.0
2015-May-01 06:29N 34°37' E 135°26'0 0.0
2015-May-01 05:29N 34°37' E 135°26'0 0.0
2015-May-01 04:29N 34°37' E 135°26'0 0.0
2015-May-01 03:29N 34°37' E 135°26'0 0.0
2015-May-01 01:29N 34°37' E 135°26'0 0.0
2015-May-01 00:17N 34°37' E 135°26'0 0.0
2015-Apr-30 23:29N 34°37' E 135°26'1111.8
2015-Apr-30 22:33N 34°35' E 135°13'1918.6
2015-Apr-30 21:33N 34°34' E 134°50'1 0.0
2015-Apr-29 12:29N 34°35' E 134°50'2021.1
2015-Apr-29 11:33N 34°36' E 135°14'10 9.9
2015-Apr-29 10:33N 34°37' E 135°26'0 0.0
2015-Apr-29 09:28N 34°37' E 135°26'0 0.0
2015-Apr-29 08:28N 34°37' E 135°26'0 0.0
2015-Apr-29 07:28N 34°37' E 135°26'0 0.0
2015-Apr-29 06:16N 34°37' E 135°26'0 0.0
2015-Apr-29 05:28N 34°37' E 135°26'0 0.0
2015-Apr-29 04:22N 34°37' E 135°26'0 0.0
2015-Apr-29 03:28N 34°37' E 135°26'0 0.0
2015-Apr-29 02:28N 34°37' E 135°26'0 0.0
2015-Apr-29 01:04N 34°37' E 135°26'0 0.0
2015-Apr-29 00:28N 34°37' E 135°26'0 0.0
2015-Apr-28 23:28N 34°37' E 135°26'9 9.7
2015-Apr-28 22:33N 34°35' E 135°15'1918.9
2015-Apr-28 21:33N 34°35' E 134°52'1 0.0
2015-Apr-27 12:30N 34°35' E 134°51'1919.8
2015-Apr-27 11:33N 34°36' E 135°14'1010.1
2015-Apr-27 10:33N 34°37' E 135°26'0 0.0
2015-Apr-27 09:19N 34°37' E 135°26'0 0.0
2015-Apr-27 08:31N 34°37' E 135°26'0 0.0
2015-Apr-27 07:31N 34°37' E 135°26'0 0.0
2015-Apr-27 06:25N 34°37' E 135°26'0 0.0
2015-Apr-27 05:31N 34°37' E 135°26'0 0.0
2015-Apr-27 04:31N 34°37' E 135°26'0 0.0
2015-Apr-27 03:25N 34°37' E 135°26'0 0.0
2015-Apr-27 02:31N 34°37' E 135°26'0 0.0
2015-Apr-27 01:31N 34°37' E 135°26'0 0.0
2015-Apr-27 00:31N 34°37' E 135°26'0 0.0
2015-Apr-26 23:31N 34°37' E 135°26'9 9.0
2015-Apr-26 22:33N 34°36' E 135°16'1918.8
2015-Apr-26 21:33N 34°34' E 134°53'2 0.1
2015-Apr-25 12:33N 34°34' E 134°50'2020.4
2015-Apr-25 11:34N 34°37' E 135°14'10 9.7
2015-Apr-25 10:33N 34°37' E 135°26'0 0.0
2015-Apr-25 09:33N 34°37' E 135°26'0 0.0
2015-Apr-25 08:34N 34°37' E 135°26'0 0.0
2015-Apr-25 07:34N 34°37' E 135°26'0 0.0
2015-Apr-25 06:31N 34°37' E 135°26'0 0.0
2015-Apr-25 05:31N 34°37' E 135°26'0 0.0
2015-Apr-25 04:30N 34°37' E 135°26'0 0.0
2015-Apr-25 03:31N 34°37' E 135°26'0 0.0
2015-Apr-25 02:25N 34°37' E 135°26'0 0.0
2015-Apr-25 01:30N 34°37' E 135°26'0 0.0
2015-Apr-25 00:31N 34°37' E 135°26'0 0.0
2015-Apr-24 23:31N 34°37' E 135°26'9 9.5
2015-Apr-24 22:33N 34°35' E 135°15'2019.5
2015-Apr-24 21:33N 34°34' E 134°51'2 0.1
2015-Apr-23 12:33N 34°34' E 134°49'  

Dump ship's entire track history